Time;durP1;ratioP1;P1;durP2;ratioP2;P2;SDS_P1;SDS_P2;PMS_P1;PMS_P2;Temp;Humidity;BMP_temperature;BMP_pressure;BME280_temperature;BME280_humidity;BME280_pressure;Samples;Min_cycle;Max_cycle;Signal;HPM_P1;HPM_P2
2022/05/17 00:00:25;;;;;;;13.57;6.75;;;16.70;99.90;;;;;;5099876;28;20113;-62
2022/05/17 00:02:51;;;;;;;13.75;6.15;;;16.70;99.90;;;;;;5095970;28;20041;-62
2022/05/17 00:05:17;;;;;;;12.48;6.05;;;16.60;99.90;;;;;;5099557;28;20050;-62
2022/05/17 00:07:42;;;;;;;14.73;6.43;;;16.60;99.90;;;;;;5104844;28;20062;-62
2022/05/17 00:10:09;;;;;;;13.55;6.18;;;16.60;99.90;;;;;;5085476;28;20036;-62
2022/05/17 00:12:36;;;;;;;14.40;6.47;;;16.60;99.90;;;;;;5102396;28;20036;-62
2022/05/17 00:15:03;;;;;;;19.08;6.18;;;16.50;99.90;;;;;;5094861;28;20040;-62
2022/05/17 00:17:28;;;;;;;14.75;6.28;;;16.50;99.90;;;;;;5099653;28;20436;-62
2022/05/17 00:19:54;;;;;;;14.57;6.22;;;16.40;99.90;;;;;;5086251;28;20054;-62
2022/05/17 00:22:20;;;;;;;12.10;6.63;;;16.40;99.90;;;;;;5099613;28;20047;-62
2022/05/17 00:24:46;;;;;;;15.45;5.90;;;16.30;99.90;;;;;;5087398;28;20043;-62
2022/05/17 00:27:12;;;;;;;12.27;6.07;;;16.30;99.90;;;;;;5098231;28;20039;-62
2022/05/17 00:29:37;;;;;;;18.70;6.80;;;16.30;99.90;;;;;;5102717;28;20526;-62
2022/05/17 00:32:03;;;;;;;15.25;6.65;;;16.20;99.90;;;;;;5096961;28;20067;-63
2022/05/17 00:34:30;;;;;;;14.25;6.30;;;16.20;99.90;;;;;;5098341;28;20349;-62
2022/05/17 00:36:56;;;;;;;17.75;6.85;;;16.20;99.90;;;;;;5082414;28;20598;-62
2022/05/17 00:39:21;;;;;;;14.90;7.05;;;16.10;99.90;;;;;;5099410;28;20044;-62
2022/05/17 00:41:47;;;;;;;15.52;6.80;;;16.10;99.90;;;;;;5098432;28;20556;-62
2022/05/17 00:47:12;;;;;;;15.65;6.90;;;16.00;99.90;;;;;;5098191;28;20140;-62
2022/05/17 00:49:49;;;;;;;20.98;8.10;;;15.90;99.90;;;;;;5098461;28;20043;-62
2022/05/17 00:52:26;;;;;;;16.95;6.80;;;15.90;99.90;;;;;;5098702;28;20489;-62
2022/05/17 00:54:55;;;;;;;13.18;6.75;;;15.90;99.90;;;;;;5096953;28;20032;-61
2022/05/17 00:57:43;;;;;;;12.88;6.10;;;15.90;99.90;;;;;;5101517;28;20096;-62
2022/05/17 01:00:12;;;;;;;17.42;7.07;;;15.90;99.90;;;;;;5099297;28;20039;-62
2022/05/17 01:02:45;;;;;;;14.05;6.57;;;15.80;99.90;;;;;;5099832;28;20071;-62
2022/05/17 01:05:11;;;;;;;13.57;6.60;;;15.80;99.90;;;;;;5091050;28;20123;-62
2022/05/17 01:07:41;;;;;;;19.02;6.72;;;15.70;99.90;;;;;;5099524;28;20441;-62
2022/05/17 01:10:08;;;;;;;12.48;6.30;;;15.60;99.90;;;;;;5096288;28;20036;-62
2022/05/17 01:12:38;;;;;;;18.15;6.60;;;15.60;99.90;;;;;;5097120;28;20137;-62
2022/05/17 01:15:06;;;;;;;15.18;6.38;;;15.60;99.90;;;;;;5103716;28;20055;-63
2022/05/17 01:17:35;;;;;;;14.93;6.88;;;15.60;99.90;;;;;;5098488;28;20039;-62
2022/05/17 01:20:04;;;;;;;15.77;6.97;;;15.50;99.90;;;;;;5098052;28;20044;-62
2022/05/17 01:22:30;;;;;;;15.95;6.82;;;15.50;99.90;;;;;;5077427;28;20044;-62
2022/05/17 01:24:55;;;;;;;18.13;6.90;;;15.40;99.90;;;;;;5099149;28;20047;-62
2022/05/17 01:27:39;;;;;;;12.88;6.53;;;15.30;99.90;;;;;;5118179;28;20404;-62
2022/05/17 01:30:06;;;;;;;19.50;7.18;;;15.30;99.90;;;;;;5101100;28;20044;-62
2022/05/17 01:32:33;;;;;;;19.92;7.20;;;15.30;99.90;;;;;;5098835;28;20036;-62
2022/05/17 01:34:59;;;;;;;17.25;8.02;;;15.30;99.90;;;;;;5099584;28;20036;-62
2022/05/17 01:37:24;;;;;;;16.58;6.75;;;15.20;99.90;;;;;;5107676;28;20367;-62
2022/05/17 01:39:50;;;;;;;18.40;7.25;;;15.20;99.90;;;;;;5102593;28;20452;-61
2022/05/17 01:42:16;;;;;;;15.57;7.43;;;15.20;99.90;;;;;;5106787;28;20035;-62
2022/05/17 01:44:43;;;;;;;14.23;7.13;;;15.00;99.90;;;;;;5106678;28;20036;-62
2022/05/17 01:47:11;;;;;;;14.70;6.85;;;15.00;99.90;;;;;;5104161;28;20082;-62
2022/05/17 01:49:37;;;;;;;13.75;7.10;;;15.00;99.90;;;;;;5110149;28;20058;-61
2022/05/17 01:52:03;;;;;;;12.43;6.38;;;15.10;99.90;;;;;;5103545;28;20039;-63
2022/05/17 01:54:28;;;;;;;18.73;7.47;;;15.00;99.90;;;;;;5105950;28;20132;-61
2022/05/17 01:56:54;;;;;;;15.20;7.05;;;14.90;99.90;;;;;;5102468;28;20040;-61
2022/05/17 01:59:20;;;;;;;16.50;7.32;;;14.90;99.90;;;;;;5088344;28;20507;-61
2022/05/17 02:01:45;;;;;;;12.82;6.55;;;14.80;99.90;;;;;;5106236;28;20036;-61
2022/05/17 02:04:13;;;;;;;15.05;6.38;;;14.80;99.90;;;;;;5106624;28;20036;-61
2022/05/17 02:06:39;;;;;;;14.77;6.43;;;14.70;99.90;;;;;;5107458;28;20095;-61
2022/05/17 02:09:05;;;;;;;16.90;7.25;;;14.70;99.90;;;;;;5108069;28;20047;-61
2022/05/17 02:11:31;;;;;;;16.77;7.25;;;14.70;99.90;;;;;;5104376;28;20040;-62
2022/05/17 02:13:56;;;;;;;15.18;6.70;;;14.70;99.90;;;;;;5101392;28;20062;-62
2022/05/17 02:16:22;;;;;;;19.17;8.15;;;14.70;99.90;;;;;;5099761;28;20044;-61
2022/05/17 02:18:48;;;;;;;13.00;7.43;;;14.50;99.90;;;;;;5107689;28;20040;-61
2022/05/17 02:21:14;;;;;;;16.15;6.90;;;14.60;99.90;;;;;;5101249;28;20036;-61
2022/05/17 02:23:39;;;;;;;16.25;7.50;;;14.60;99.90;;;;;;5100167;28;20120;-62
2022/05/17 02:26:05;;;;;;;16.58;7.03;;;14.60;99.90;;;;;;5098963;28;20070;-61
2022/05/17 02:28:31;;;;;;;17.92;7.13;;;14.60;99.90;;;;;;5101043;28;20385;-61
2022/05/17 02:30:56;;;;;;;18.17;6.78;;;14.60;99.90;;;;;;5102224;28;20036;-61
2022/05/17 02:33:22;;;;;;;15.93;7.18;;;14.70;99.90;;;;;;5104636;28;20123;-62
2022/05/17 02:35:48;;;;;;;15.02;7.22;;;14.70;99.90;;;;;;5103771;28;20070;-61
2022/05/17 02:38:13;;;;;;;18.80;7.68;;;14.70;99.90;;;;;;5100565;28;20092;-62
2022/05/17 02:40:39;;;;;;;15.93;7.90;;;14.60;99.90;;;;;;5102107;28;20407;-62
2022/05/17 02:43:05;;;;;;;17.23;7.70;;;14.60;99.90;;;;;;5104500;28;20040;-61
2022/05/17 02:45:31;;;;;;;14.10;6.97;;;14.60;99.90;;;;;;5104017;28;20044;-61
2022/05/17 02:47:57;;;;;;;15.88;7.28;;;14.60;99.90;;;;;;5101458;28;20046;-61
2022/05/17 02:50:23;;;;;;;15.95;7.80;;;14.50;99.90;;;;;;5107476;28;20122;-61
2022/05/17 02:52:48;;;;;;;16.90;7.80;;;14.50;99.90;;;;;;5102964;28;20032;-61
2022/05/17 02:55:15;;;;;;;15.32;7.30;;;14.50;99.90;;;;;;5101474;28;20039;-61
2022/05/17 02:57:40;;;;;;;17.15;7.60;;;14.50;99.90;;;;;;5100060;28;20634;-61
2022/05/17 03:00:11;;;;;;;17.98;7.45;;;14.40;99.90;;;;;;5100464;28;20042;-61
2022/05/17 03:02:37;;;;;;;15.93;7.63;;;14.40;99.90;;;;;;5099742;28;20090;-61
2022/05/17 03:05:02;;;;;;;15.98;7.28;;;14.50;99.90;;;;;;5104967;28;20427;-61
2022/05/17 03:07:28;;;;;;;15.65;7.65;;;14.40;99.90;;;;;;5098395;28;20058;-61
2022/05/17 03:09:54;;;;;;;17.15;7.45;;;14.40;99.90;;;;;;5103272;28;20349;-61
2022/05/17 03:12:19;;;;;;;18.42;8.10;;;14.30;99.90;;;;;;5103115;28;20036;-61
2022/05/17 03:14:45;;;;;;;16.40;7.50;;;14.30;99.90;;;;;;5097677;28;20461;-61
2022/05/17 03:17:13;;;;;;;13.65;7.25;;;14.30;99.90;;;;;;5100180;28;20040;-61
2022/05/17 03:19:39;;;;;;;14.88;7.63;;;14.30;99.90;;;;;;5100646;28;20048;-61
2022/05/17 03:22:05;;;;;;;13.32;6.95;;;14.20;99.90;;;;;;5100314;28;20361;-62
2022/05/17 03:24:31;;;;;;;17.42;8.30;;;14.30;99.90;;;;;;5102691;28;20036;-61
2022/05/17 03:26:57;;;;;;;11.70;7.25;;;14.20;99.90;;;;;;5099199;28;20561;-62
2022/05/17 03:29:23;;;;;;;16.02;7.75;;;14.20;99.90;;;;;;5097663;28;20123;-61
2022/05/17 03:31:49;;;;;;;18.67;8.18;;;14.10;99.90;;;;;;5102993;28;20031;-61
2022/05/17 03:34:15;;;;;;;15.98;7.57;;;14.10;99.90;;;;;;5098845;28;20427;-61
2022/05/17 03:36:41;;;;;;;17.52;8.55;;;14.10;99.90;;;;;;5081863;28;20050;-61
2022/05/17 03:39:06;;;;;;;14.85;7.63;;;14.10;99.90;;;;;;5102589;28;20386;-61
2022/05/17 03:41:32;;;;;;;15.98;8.23;;;14.10;99.90;;;;;;5096756;28;20047;-62
2022/05/17 03:43:57;;;;;;;14.98;7.65;;;14.10;99.90;;;;;;5099231;28;20035;-61
2022/05/17 03:46:23;;;;;;;14.13;7.88;;;14.10;99.90;;;;;;5096291;28;20024;-61
2022/05/17 03:48:48;;;;;;;15.73;7.30;;;14.00;99.90;;;;;;5114977;27;20071;-61
2022/05/17 03:51:16;;;;;;;13.77;7.20;;;14.10;99.90;;;;;;5100785;28;20386;-61
2022/05/17 03:53:43;;;;;;;14.27;7.45;;;14.00;99.90;;;;;;5099627;28;20059;-62
2022/05/17 03:56:09;;;;;;;14.82;8.25;;;14.00;99.90;;;;;;5096387;28;20110;-61
2022/05/17 03:58:34;;;;;;;13.65;7.70;;;14.00;99.90;;;;;;5096375;28;20074;-61
2022/05/17 04:01:00;;;;;;;15.82;7.65;;;14.00;99.90;;;;;;5111175;27;20046;-61
2022/05/17 04:03:26;;;;;;;14.07;7.22;;;14.10;99.90;;;;;;5099756;28;20043;-62
2022/05/17 04:05:51;;;;;;;17.35;7.13;;;14.10;99.90;;;;;;5102571;28;20036;-61
2022/05/17 04:08:17;;;;;;;13.70;7.70;;;14.10;99.90;;;;;;5094357;28;20349;-61
2022/05/17 04:10:43;;;;;;;13.07;7.47;;;14.20;99.90;;;;;;5099239;28;20101;-61
2022/05/17 04:13:08;;;;;;;13.95;7.07;;;14.20;99.90;;;;;;5099240;28;20067;-61
2022/05/17 04:15:34;;;;;;;17.65;8.23;;;14.20;99.90;;;;;;5097653;28;20062;-61
2022/05/17 04:18:00;;;;;;;18.60;8.48;;;14.20;99.90;;;;;;5098385;28;20044;-61
2022/05/17 04:20:26;;;;;;;15.18;7.60;;;14.20;99.90;;;;;;5098919;28;20463;-61
2022/05/17 04:22:54;;;;;;;14.35;7.38;;;14.20;99.90;;;;;;5101985;28;20075;-61
2022/05/17 04:25:23;;;;;;;14.32;7.63;;;14.30;99.90;;;;;;5100444;28;20039;-61
2022/05/17 04:27:49;;;;;;;18.27;8.20;;;14.40;99.90;;;;;;5090229;28;20351;-61
2022/05/17 04:30:15;;;;;;;15.93;7.25;;;14.40;99.90;;;;;;5084679;28;20193;-61
2022/05/17 04:32:41;;;;;;;16.10;7.65;;;14.40;99.90;;;;;;5099452;28;20285;-61
2022/05/17 04:35:07;;;;;;;14.88;7.35;;;14.50;99.90;;;;;;5097021;28;20032;-61
2022/05/17 04:37:32;;;;;;;14.95;7.70;;;14.60;99.90;;;;;;5098239;28;20046;-61
2022/05/17 04:39:58;;;;;;;16.05;7.47;;;14.70;99.90;;;;;;5098826;28;20023;-61
2022/05/17 04:42:24;;;;;;;17.55;7.95;;;14.80;99.90;;;;;;5100768;28;20038;-61
2022/05/17 04:44:50;;;;;;;14.73;7.07;;;14.90;99.90;;;;;;5076553;28;20469;-61
2022/05/17 04:47:16;;;;;;;14.27;7.68;;;15.20;99.90;;;;;;5099325;28;20097;-61
2022/05/17 04:49:42;;;;;;;17.08;7.07;;;15.40;99.90;;;;;;5100659;28;20043;-61
2022/05/17 04:52:08;;;;;;;15.90;7.40;;;15.80;99.90;;;;;;5095839;28;20525;-61
2022/05/17 04:54:34;;;;;;;13.77;6.50;;;16.40;99.90;;;;;;5097115;28;20115;-61
2022/05/17 04:56:59;;;;;;;13.95;6.93;;;16.90;99.90;;;;;;5096442;28;20068;-61
2022/05/17 04:59:25;;;;;;;12.30;6.75;;;17.30;99.90;;;;;;5097345;28;20075;-62
2022/05/17 05:01:51;;;;;;;12.73;6.70;;;17.40;99.90;;;;;;5086002;28;20048;-62
2022/05/17 05:04:17;;;;;;;14.50;6.15;;;17.50;99.90;;;;;;5086076;28;20025;-62
2022/05/17 05:06:43;;;;;;;12.90;6.60;;;17.70;99.90;;;;;;5082218;28;20039;-63
2022/05/17 05:09:10;;;;;;;13.80;6.57;;;17.90;99.90;;;;;;5098913;28;20387;-61
2022/05/17 05:11:38;;;;;;;12.10;6.20;;;18.10;99.90;;;;;;5103171;28;20050;-62
2022/05/17 05:14:05;;;;;;;13.35;6.70;;;18.10;99.90;;;;;;5104871;28;20075;-62
2022/05/17 05:16:31;;;;;;;10.55;6.10;;;17.90;99.90;;;;;;5095975;28;20036;-62
2022/05/17 05:18:58;;;;;;;8.82;6.15;;;17.60;99.90;;;;;;5097387;28;20071;-62
2022/05/17 05:21:23;;;;;;;10.80;6.32;;;17.40;99.90;;;;;;5090167;28;20035;-61
2022/05/17 05:23:49;;;;;;;12.95;6.28;;;17.30;99.90;;;;;;5090864;28;20043;-61
2022/05/17 05:26:15;;;;;;;17.60;6.88;;;17.20;99.90;;;;;;5101467;28;20028;-61
2022/05/17 05:28:43;;;;;;;11.73;6.50;;;17.00;99.90;;;;;;5095761;28;20040;-61
2022/05/17 05:31:10;;;;;;;14.90;6.60;;;16.90;99.90;;;;;;5076287;28;20411;-61
2022/05/17 05:33:36;;;;;;;13.30;6.30;;;16.80;99.90;;;;;;5099902;28;20074;-60
2022/05/17 05:36:02;;;;;;;13.35;6.30;;;16.80;99.90;;;;;;5101130;28;20040;-61
2022/05/17 05:38:28;;;;;;;11.15;6.47;;;16.80;99.90;;;;;;5111865;28;20043;-61
2022/05/17 05:40:54;;;;;;;13.32;6.68;;;16.90;99.90;;;;;;5101088;28;20040;-61
2022/05/17 05:43:20;;;;;;;13.48;5.88;;;17.00;99.90;;;;;;5099809;28;20035;-61
2022/05/17 05:45:45;;;;;;;16.27;6.55;;;17.20;99.90;;;;;;5097838;28;20079;-62
2022/05/17 05:48:11;;;;;;;11.80;6.25;;;17.40;99.90;;;;;;5101045;28;20035;-61
2022/05/17 05:50:38;;;;;;;12.82;5.85;;;17.60;99.90;;;;;;5095681;28;20337;-61
2022/05/17 05:53:09;;;;;;;14.02;6.05;;;17.70;99.90;;;;;;5097289;28;20028;-61
2022/05/17 05:55:36;;;;;;;13.45;6.03;;;17.90;99.90;;;;;;5107441;28;20050;-61
2022/05/17 05:58:02;;;;;;;14.63;6.68;;;17.90;99.90;;;;;;5097632;28;20094;-60
2022/05/17 06:00:28;;;;;;;10.57;5.82;;;17.80;99.90;;;;;;5099856;28;20464;-60
2022/05/17 06:02:54;;;;;;;12.40;7.07;;;17.80;99.90;;;;;;5098308;28;20027;-60
2022/05/17 06:05:22;;;;;;;14.68;6.43;;;17.90;99.90;;;;;;5097919;28;20036;-61
2022/05/17 06:07:48;;;;;;;11.27;6.47;;;18.00;99.90;;;;;;5091036;28;20055;-61
2022/05/17 06:10:14;;;;;;;11.88;6.20;;;18.10;99.90;;;;;;5094671;28;20084;-61
2022/05/17 06:12:43;;;;;;;12.75;6.53;;;18.40;99.90;;;;;;5084337;28;20114;-62
2022/05/17 06:15:09;;;;;;;14.55;6.57;;;18.60;99.90;;;;;;5081013;28;20137;-62
2022/05/17 06:17:36;;;;;;;15.65;7.20;;;18.90;99.90;;;;;;5087481;28;20037;-60
2022/05/17 06:20:11;;;;;;;14.80;6.72;;;19.10;99.90;;;;;;5093346;28;20146;-61
2022/05/17 06:22:38;;;;;;;14.50;6.43;;;19.50;99.90;;;;;;5092684;28;20129;-61
2022/05/17 06:25:05;;;;;;;13.93;6.60;;;20.00;99.90;;;;;;5095763;28;20051;-61
2022/05/17 06:27:32;;;;;;;14.27;6.45;;;20.30;99.90;;;;;;5094686;28;20035;-61
2022/05/17 06:30:00;;;;;;;13.20;5.63;;;20.50;99.90;;;;;;5094530;28;20047;-61
2022/05/17 06:32:26;;;;;;;11.00;5.38;;;20.80;99.90;;;;;;5098502;28;20063;-61
2022/05/17 06:34:51;;;;;;;16.00;5.30;;;21.00;99.90;;;;;;5099082;28;20382;-60
2022/05/17 06:37:17;;;;;;;15.50;5.22;;;21.30;99.90;;;;;;5101235;28;20054;-61
2022/05/17 06:39:43;;;;;;;9.38;4.53;;;21.50;99.90;;;;;;5100326;28;20059;-60
2022/05/17 06:42:09;;;;;;;13.57;5.00;;;21.80;99.90;;;;;;5101409;28;20434;-61
2022/05/17 06:44:39;;;;;;;11.07;4.55;;;22.00;99.90;;;;;;5101421;28;20043;-61
2022/05/17 06:47:05;;;;;;;12.10;4.38;;;21.90;99.90;;;;;;5098018;28;20283;-61
2022/05/17 06:49:32;;;;;;;13.30;4.50;;;21.80;99.90;;;;;;5098403;28;20066;-61
2022/05/17 06:52:02;;;;;;;11.85;4.05;;;22.20;99.90;;;;;;5101413;28;20074;-61
2022/05/17 06:54:28;;;;;;;11.43;4.43;;;22.20;99.90;;;;;;5095967;28;20511;-61
2022/05/17 06:56:54;;;;;;;10.23;4.30;;;21.80;99.90;;;;;;5096893;28;20328;-60
2022/05/17 06:59:19;;;;;;;16.20;4.78;;;21.80;99.90;;;;;;5098627;28;20028;-61
2022/05/17 07:01:47;;;;;;;9.98;4.10;;;22.00;99.90;;;;;;5081578;28;20075;-60
2022/05/17 07:04:13;;;;;;;12.40;4.28;;;21.90;99.90;;;;;;5101245;28;20466;-61
2022/05/17 07:06:39;;;;;;;11.90;4.18;;;21.70;99.90;;;;;;5100183;28;20047;-60
2022/05/17 07:09:04;;;;;;;9.73;4.20;;;21.40;99.90;;;;;;5100626;28;20360;-61
2022/05/17 07:14:15;;;;;;;12.05;4.20;;;21.00;99.90;;;;;;5096694;28;20232;-61
2022/05/17 07:16:40;;;;;;;13.32;5.00;;;21.00;99.90;;;;;;5101113;28;20036;-61
2022/05/17 07:19:06;;;;;;;13.20;4.55;;;20.80;99.90;;;;;;5100075;28;20221;-61
2022/05/17 07:21:33;;;;;;;10.38;4.47;;;20.60;99.90;;;;;;5101465;28;20035;-61
2022/05/17 07:23:58;;;;;;;13.13;4.35;;;20.60;99.90;;;;;;5102022;28;20070;-61
2022/05/17 07:26:24;;;;;;;10.90;3.83;;;20.90;99.90;;;;;;5100825;28;20064;-60
2022/05/17 07:28:49;;;;;;;14.23;4.63;;;20.80;99.90;;;;;;5096731;28;20464;-63
2022/05/17 07:31:15;;;;;;;13.43;3.90;;;21.00;99.90;;;;;;5101280;28;20047;-60
2022/05/17 07:33:41;;;;;;;10.50;4.40;;;20.90;99.90;;;;;;5101436;28;20764;-60
2022/05/17 07:36:08;;;;;;;11.23;4.10;;;20.90;99.90;;;;;;5102000;28;20034;-61
2022/05/17 07:38:34;;;;;;;11.68;4.40;;;21.10;99.90;;;;;;5098389;28;20107;-60
2022/05/17 07:41:00;;;;;;;12.52;4.50;;;21.20;99.90;;;;;;5102646;28;20035;-60
2022/05/17 07:43:26;;;;;;;14.15;4.38;;;21.00;99.90;;;;;;5102232;28;20047;-61
2022/05/17 07:45:51;;;;;;;19.67;5.45;;;21.30;99.90;;;;;;5098961;28;20044;-62
2022/05/17 07:48:22;;;;;;;12.00;4.20;;;21.30;99.90;;;;;;5101006;28;20039;-60
2022/05/17 07:50:49;;;;;;;13.20;3.72;;;21.40;99.90;;;;;;5094235;28;20071;-60
2022/05/17 07:53:19;;;;;;;11.57;4.20;;;21.40;99.90;;;;;;5098803;28;20089;-61
2022/05/17 07:55:47;;;;;;;9.75;3.90;;;21.30;99.90;;;;;;5100625;28;20723;-61
2022/05/17 07:58:14;;;;;;;9.88;3.97;;;21.40;99.90;;;;;;5097805;28;20103;-60
2022/05/17 08:00:42;;;;;;;13.48;3.72;;;21.50;99.90;;;;;;5101127;28;20036;-60
2022/05/17 08:03:09;;;;;;;13.75;4.00;;;21.60;99.90;;;;;;5096989;28;20036;-61
2022/05/17 08:05:35;;;;;;;11.45;3.78;;;21.60;99.90;;;;;;5100151;28;20040;-61
2022/05/17 08:08:02;;;;;;;9.27;3.08;;;21.60;99.90;;;;;;5095994;28;20036;-61
2022/05/17 08:10:28;;;;;;;15.73;3.70;;;21.70;99.90;;;;;;5095714;28;20068;-62
2022/05/17 08:12:53;;;;;;;11.23;3.53;;;21.90;99.90;;;;;;5099801;28;20479;-62
2022/05/17 08:15:20;;;;;;;12.93;2.88;;;21.90;99.90;;;;;;5098421;28;20059;-61
2022/05/17 08:17:46;;;;;;;17.52;3.95;;;22.10;99.90;;;;;;5099312;28;20118;-63
2022/05/17 08:20:12;;;;;;;9.30;3.75;;;21.90;99.90;;;;;;5097808;28;20128;-61
2022/05/17 08:22:39;;;;;;;7.95;3.10;;;21.80;99.90;;;;;;5098791;28;20115;-61
2022/05/17 08:27:50;;;;;;;12.20;3.22;;;21.50;99.90;;;;;;5091969;28;20036;-61
2022/05/17 08:30:19;;;;;;;13.38;2.90;;;21.60;99.90;;;;;;5099110;28;20576;-61
2022/05/17 08:36:03;;;;;;;12.15;3.20;;;21.50;99.90;;;;;;5097146;28;20377;-61
2022/05/17 08:38:37;;;;;;;9.82;3.10;;;21.40;99.90;;;;;;5097026;28;20042;-61
2022/05/17 08:41:11;;;;;;;11.10;3.10;;;21.40;99.90;;;;;;5099556;28;20035;-61
2022/05/17 08:43:52;;;;;;;13.55;3.55;;;21.40;99.90;;;;;;5099366;28;20036;-61
2022/05/17 08:46:29;;;;;;;7.78;2.63;;;21.40;99.90;;;;;;5092185;28;20354;-61
2022/05/17 08:49:13;;;;;;;10.32;2.90;;;21.40;99.90;;;;;;5098241;28;20061;-61
2022/05/17 08:51:55;;;;;;;8.88;2.85;;;21.40;99.90;;;;;;5096954;28;20047;-61
2022/05/17 08:54:36;;;;;;;7.72;2.70;;;21.30;99.90;;;;;;5097167;28;20086;-61
2022/05/17 08:57:20;;;;;;;12.07;3.05;;;21.40;99.90;;;;;;5102083;28;20101;-60
2022/05/17 08:59:47;;;;;;;10.50;3.22;;;21.20;99.90;;;;;;5097057;28;20445;-61
2022/05/17 09:02:31;;;;;;;15.05;3.80;;;21.30;99.90;;;;;;5102463;28;20088;-61
2022/05/17 09:05:34;;;;;;;10.57;3.05;;;21.30;99.90;;;;;;5096602;28;20040;-61
2022/05/17 09:08:15;;;;;;;11.95;3.00;;;21.30;99.90;;;;;;5054775;28;20392;-61
2022/05/17 09:10:58;;;;;;;16.15;3.47;;;21.30;99.90;;;;;;5099854;28;20035;-62
2022/05/17 09:13:46;;;;;;;11.45;2.78;;;21.30;99.90;;;;;;5104766;28;20059;-62
2022/05/17 09:16:14;;;;;;;11.85;3.20;;;21.20;99.90;;;;;;5103006;28;20047;-62
2022/05/17 09:18:44;;;;;;;9.60;2.50;;;21.00;99.90;;;;;;5097783;28;20392;-61
2022/05/17 09:21:34;;;;;;;14.45;3.47;;;21.00;99.90;;;;;;5103224;28;20028;-61
2022/05/17 09:24:07;;;;;;;10.95;3.33;;;21.00;99.90;;;;;;5103711;28;20458;-62
2022/05/17 09:26:33;;;;;;;11.20;3.38;;;21.00;99.90;;;;;;5101555;28;20035;-61
2022/05/17 09:29:05;;;;;;;10.98;3.38;;;21.10;99.90;;;;;;5098375;28;20036;-62
2022/05/17 09:31:34;;;;;;;11.35;3.65;;;21.00;99.90;;;;;;5105944;28;20046;-62
2022/05/17 09:34:02;;;;;;;10.45;2.92;;;21.10;99.90;;;;;;5098220;28;20447;-61
2022/05/17 09:36:40;;;;;;;14.35;3.63;;;21.30;99.90;;;;;;5095223;28;20185;-62
2022/05/17 09:39:06;;;;;;;12.20;2.95;;;21.40;99.90;;;;;;5103858;28;20042;-62
2022/05/17 09:41:36;;;;;;;8.48;2.88;;;21.40;99.90;;;;;;5097980;28;20028;-62
2022/05/17 09:44:11;;;;;;;9.27;2.63;;;21.40;99.90;;;;;;5095454;28;20036;-62
2022/05/17 09:46:47;;;;;;;11.23;3.05;;;21.30;99.90;;;;;;5100425;28;20476;-59
2022/05/17 09:55:09;;;;;;;10.65;3.33;;;21.50;99.90;;;;;;5095551;28;20044;-60
2022/05/17 09:57:36;;;;;;;11.70;3.53;;;21.50;99.90;;;;;;5099399;28;20054;-61
2022/05/17 10:00:12;;;;;;;10.48;3.03;;;21.60;99.90;;;;;;5103285;28;20078;-61
2022/05/17 10:02:49;;;;;;;12.23;3.25;;;21.60;99.90;;;;;;5102467;28;20043;-60
2022/05/17 10:05:23;;;;;;;11.43;3.85;;;21.70;99.90;;;;;;5102095;28;20138;-60
2022/05/17 10:07:56;;;;;;;;;;;21.70;99.90;;;;;;5103482;28;20128;-60
2022/05/17 10:10:44;;;;;;;11.10;3.35;;;21.60;99.90;;;;;;5121086;27;20387;-60
2022/05/17 10:13:32;;;;;;;11.48;3.40;;;21.60;99.90;;;;;;5097608;28;20096;-60
2022/05/17 10:16:13;;;;;;;11.68;3.63;;;21.80;99.90;;;;;;5103395;28;20164;-60
2022/05/17 10:18:45;;;;;;;10.30;3.10;;;21.90;99.90;;;;;;5100020;28;20114;-60
2022/05/17 10:21:45;;;;;;;10.27;3.20;;;22.00;99.90;;;;;;5100290;28;20047;-60
2022/05/17 10:24:53;;;;;;;11.82;3.28;;;22.20;99.90;;;;;;5110161;28;20043;-60
2022/05/17 10:27:40;;;;;;;9.43;3.00;;;22.30;99.90;;;;;;5094866;28;20040;-60
2022/05/17 10:30:20;;;;;;;14.93;3.95;;;22.40;99.90;;;;;;5108726;28;20060;-60
2022/05/17 10:32:54;;;;;;;9.05;3.03;;;22.40;99.90;;;;;;5102698;28;20027;-60
2022/05/17 10:35:44;;;;;;;13.05;3.47;;;22.40;99.90;;;;;;5104607;28;20035;-60
2022/05/17 10:38:24;;;;;;;12.38;3.45;;;22.50;99.90;;;;;;5096500;28;20043;-60
2022/05/17 10:40:52;;;;;;;10.32;3.47;;;22.50;99.90;;;;;;5102924;28;20472;-60
2022/05/17 10:43:37;;;;;;;11.57;3.58;;;22.60;99.90;;;;;;5103416;28;20035;-59
2022/05/17 10:46:11;;;;;;;11.93;4.22;;;22.40;99.90;;;;;;5105535;28;20051;-61
2022/05/17 10:49:07;;;;;;;13.40;3.78;;;22.30;99.90;;;;;;5105687;28;20036;-61
2022/05/17 10:51:54;;;;;;;12.43;3.55;;;22.30;99.90;;;;;;5107792;28;20039;-61
2022/05/17 10:54:37;;;;;;;12.15;3.45;;;22.50;99.90;;;;;;5109850;28;20118;-60
2022/05/17 10:57:32;;;;;;;12.23;3.70;;;22.50;99.90;;;;;;5101972;28;20095;-61
2022/05/17 11:00:22;;;;;;;14.00;3.97;;;22.70;99.90;;;;;;5104717;28;20035;-61
2022/05/17 11:02:54;;;;;;;9.48;3.15;;;22.80;99.90;;;;;;5102125;28;20032;-62
2022/05/17 11:05:41;;;;;;;10.70;3.08;;;22.90;99.90;;;;;;5100817;28;20193;-62
2022/05/17 11:08:13;;;;;;;10.43;4.20;;;22.80;99.90;;;;;;5099222;28;20498;-62
2022/05/17 11:11:05;;;;;;;10.75;4.82;;;22.60;99.90;;;;;;5103664;28;20509;-61
2022/05/17 11:13:37;;;;;;;11.45;4.35;;;22.60;99.90;;;;;;5106489;28;20127;-61
2022/05/17 11:16:17;;;;;;;14.20;4.40;;;22.60;99.90;;;;;;5101650;28;20128;-61
2022/05/17 11:18:51;;;;;;;14.35;4.80;;;22.60;99.90;;;;;;5100285;28;20432;-61
2022/05/17 11:21:30;;;;;;;12.27;4.93;;;22.60;99.90;;;;;;5104397;28;20046;-61
2022/05/17 11:24:28;;;;;;;12.63;5.03;;;22.50;99.90;;;;;;5108453;28;20039;-61
2022/05/17 11:27:32;;;;;;;14.73;4.90;;;22.30;99.90;;;;;;5102258;28;20032;-61
2022/05/17 11:30:30;;;;;;;12.52;5.22;;;22.20;99.90;;;;;;5101179;28;20039;-61
2022/05/17 11:33:28;;;;;;;11.85;4.80;;;22.10;99.90;;;;;;5107957;28;20050;-61
2022/05/17 11:36:03;;;;;;;12.80;5.13;;;22.10;99.90;;;;;;5106648;28;20082;-60
2022/05/17 11:38:34;;;;;;;13.50;4.45;;;22.10;99.90;;;;;;5105915;28;20553;-61
2022/05/17 11:41:03;;;;;;;9.80;4.47;;;22.10;99.90;;;;;;5105862;28;20097;-61
2022/05/17 11:43:42;;;;;;;14.25;5.13;;;22.10;99.90;;;;;;5098987;28;20028;-61
2022/05/17 11:46:30;;;;;;;11.38;4.57;;;22.10;99.90;;;;;;5088589;28;20462;-60
2022/05/17 11:49:23;;;;;;;11.07;4.25;;;22.10;99.90;;;;;;5101564;28;20035;-61
2022/05/17 11:51:57;;;;;;;12.75;4.88;;;22.00;99.90;;;;;;5089083;28;20036;-61
2022/05/17 11:54:42;;;;;;;11.27;4.47;;;22.10;99.90;;;;;;5107940;28;20462;-61
2022/05/17 11:57:37;;;;;;;12.15;4.38;;;22.20;99.90;;;;;;5102245;28;20027;-61
2022/05/17 12:00:10;;;;;;;11.85;4.40;;;22.20;99.90;;;;;;5100970;28;20062;-60
2022/05/17 12:02:45;;;;;;;10.63;4.13;;;22.40;99.90;;;;;;5116076;28;20516;-61
2022/05/17 12:05:32;;;;;;;18.52;4.82;;;22.60;99.90;;;;;;5106146;28;20353;-60
2022/05/17 12:08:30;;;;;;;12.35;5.03;;;22.60;99.90;;;;;;5104380;28;20127;-61
2022/05/17 12:11:14;;;;;;;11.77;4.65;;;22.60;99.90;;;;;;5107472;28;20168;-60
2022/05/17 12:13:53;;;;;;;11.27;4.00;;;22.60;99.90;;;;;;5112280;28;20071;-61
2022/05/17 12:16:27;;;;;;;11.32;4.03;;;22.70;99.90;;;;;;5075481;28;20058;-61
2022/05/17 12:19:01;;;;;;;15.45;4.28;;;22.70;99.90;;;;;;5101036;28;20050;-61
2022/05/17 12:21:48;;;;;;;10.48;3.78;;;22.80;99.90;;;;;;5075283;28;20055;-61
2022/05/17 12:24:36;;;;;;;9.57;3.72;;;22.80;99.90;;;;;;5075130;28;20032;-62
2022/05/17 12:27:29;;;;;;;8.38;3.70;;;22.80;99.90;;;;;;5108538;28;20097;-61
2022/05/17 12:33:16;;;;;;;9.88;4.07;;;22.80;99.90;;;;;;5074613;28;20057;-61
2022/05/17 12:35:41;;;;;;;12.38;4.03;;;22.80;99.90;;;;;;5097242;28;20044;-61
2022/05/17 12:43:02;;;;;;;11.52;4.22;;;22.90;99.90;;;;;;5101334;28;20093;-61
2022/05/17 12:43:44;;;;;;;13.27;3.40;;;23.20;99.90;;;;;;5080556;28;20492;-60
2022/05/17 12:46:31;;;;;;;10.05;3.60;;;23.30;99.90;;;;;;5101826;28;20089;-61
2022/05/17 12:49:00;;;;;;;10.25;3.25;;;23.50;99.90;;;;;;5102894;28;20036;-61
2022/05/17 12:51:26;;;;;;;13.02;3.25;;;23.70;99.90;;;;;;5103433;28;20062;-61
2022/05/17 12:53:54;;;;;;;6.32;2.70;;;23.80;99.90;;;;;;5103417;28;20448;-61
2022/05/17 12:56:19;;;;;;;8.63;3.00;;;23.90;99.90;;;;;;5098272;28;20051;-61
2022/05/17 12:58:57;;;;;;;7.38;3.40;;;23.90;99.90;;;;;;5101076;28;20353;-61
2022/05/17 13:01:24;;;;;;;8.65;3.47;;;23.90;99.90;;;;;;5101847;28;20032;-61
2022/05/17 13:03:53;;;;;;;6.93;3.05;;;24.00;99.90;;;;;;5102758;28;20383;-61
2022/05/17 13:06:19;;;;;;;9.63;3.40;;;24.00;99.90;;;;;;5103728;28;20115;-61
2022/05/17 13:08:45;;;;;;;8.27;3.92;;;23.90;99.90;;;;;;5094547;28;20040;-61
2022/05/17 13:11:26;;;;;;;8.82;3.47;;;23.90;99.90;;;;;;5098694;28;20063;-60
2022/05/17 13:14:10;;;;;;;11.48;4.53;;;23.90;99.90;;;;;;5086759;28;20390;-62
2022/05/17 13:16:40;;;;;;;12.23;4.20;;;23.70;99.90;;;;;;5076550;28;20055;-61
2022/05/17 13:19:12;;;;;;;8.75;3.70;;;23.80;99.90;;;;;;5103477;28;20039;-61